Time;durP1;ratioP1;P1;durP2;ratioP2;P2;SDS_P1;SDS_P2;PMS_P1;PMS_P2;Temp;Humidity;BMP_temperature;BMP_pressure;BME280_temperature;BME280_humidity;BME280_pressure;Samples;Min_cycle;Max_cycle;Signal;HPM_P1;HPM_P2
2022/06/27 00:01:10;;;;;;;7.53;5.50;;;;;;;22.56;62.57;99639.44;5011978;28;20095;-85
2022/06/27 00:03:35;;;;;;;11.35;6.32;;;;;;;22.11;62.40;99584.06;5012331;28;20429;-85
2022/06/27 00:06:01;;;;;;;10.40;5.70;;;;;;;22.34;62.43;99596.44;5010857;28;20502;-84
2022/06/27 00:08:26;;;;;;;11.77;5.75;;;;;;;22.29;62.57;99596.34;5012037;28;20100;-85
2022/06/27 00:10:52;;;;;;;8.65;5.97;;;;;;;22.35;62.49;99612.31;5010690;28;20410;-85
2022/06/27 00:13:19;;;;;;;10.27;5.88;;;;;;;22.61;62.43;99659.13;5010486;28;20057;-84
2022/06/27 00:15:44;;;;;;;9.38;6.15;;;;;;;21.96;62.55;99568.53;5010761;28;20034;-84
2022/06/27 00:18:10;;;;;;;7.82;6.07;;;;;;;22.34;62.62;99623.34;5012107;28;20040;-84
2022/06/27 00:20:35;;;;;;;8.75;6.20;;;;;;;22.27;62.36;99603.88;5011907;28;20105;-84
2022/06/27 00:23:01;;;;;;;8.43;5.70;;;;;;;22.36;62.72;99632.78;5010466;28;20117;-84
2022/06/27 00:25:26;;;;;;;13.15;6.97;;;;;;;21.73;62.68;99558.06;5010667;28;20021;-84
2022/06/27 00:27:52;;;;;;;10.73;6.43;;;;;;;22.54;62.76;99641.56;5011773;28;20034;-84
2022/06/27 00:30:17;;;;;;;10.50;6.10;;;;;;;21.92;62.47;99559.34;5011873;28;20053;-84
2022/06/27 00:32:43;;;;;;;10.00;6.00;;;;;;;22.15;62.57;99610.19;5011553;28;20022;-84
2022/06/27 00:35:09;;;;;;;10.43;6.72;;;;;;;21.79;62.54;99539.06;5010118;28;20034;-85
2022/06/27 00:37:35;;;;;;;12.65;6.60;;;;;;;22.06;62.67;99603.66;5011503;28;20029;-84
2022/06/27 00:40:01;;;;;;;11.18;6.57;;;;;;;22.02;62.68;99599.81;5010239;28;20037;-84
2022/06/27 00:42:26;;;;;;;13.20;6.60;;;;;;;22.10;62.56;99604.75;5010590;28;20026;-84
2022/06/27 00:44:52;;;;;;;11.13;6.60;;;;;;;22.03;62.55;99598.78;5011668;28;20033;-84
2022/06/27 00:47:17;;;;;;;11.90;6.78;;;;;;;21.61;62.54;99528.63;5010259;28;20041;-84
2022/06/27 00:49:43;;;;;;;11.02;6.15;;;;;;;22.31;62.64;99651.56;5010432;28;20026;-84
2022/06/27 00:52:11;;;;;;;10.10;6.35;;;;;;;22.34;62.66;99669.88;5011691;28;20426;-84
2022/06/27 00:54:39;;;;;;;14.32;6.88;;;;;;;22.08;62.57;99616.84;5010316;28;20541;-84
2022/06/27 00:57:05;;;;;;;13.45;6.93;;;;;;;22.30;62.68;99652.63;5011612;28;20493;-84
2022/06/27 00:59:31;;;;;;;10.73;7.15;;;;;;;22.05;62.59;99604.72;5011078;28;20506;-84
2022/06/27 01:01:56;;;;;;;16.63;6.90;;;;;;;21.69;62.70;99551.56;5011328;28;20029;-84
2022/06/27 01:04:23;;;;;;;10.45;6.40;;;;;;;22.32;62.56;99647.81;5011507;28;20022;-85
2022/06/27 01:06:51;;;;;;;13.23;6.55;;;;;;;21.70;62.46;99551.31;5009951;28;20040;-84
2022/06/27 01:09:19;;;;;;;11.90;7.00;;;;;;;21.95;62.36;99595.69;5010163;28;20104;-84
2022/06/27 01:11:45;;;;;;;12.10;7.53;;;;;;;22.11;62.43;99614.47;5009999;28;20043;-84
2022/06/27 01:14:11;;;;;;;11.38;6.88;;;;;;;21.67;62.18;99546.44;5009811;28;20112;-85
2022/06/27 01:16:38;;;;;;;11.07;7.00;;;;;;;21.89;62.21;99565.25;5011322;28;20546;-84
2022/06/27 01:19:04;;;;;;;13.57;8.15;;;;;;;21.83;62.07;99563.56;5011297;28;20053;-84
2022/06/27 01:21:31;;;;;;;11.77;7.57;;;;;;;22.29;62.04;99631.31;5011224;28;20084;-85
2022/06/27 01:23:56;;;;;;;12.93;7.28;;;;;;;22.43;62.08;99649.53;5011899;28;20041;-84
2022/06/27 01:26:22;;;;;;;10.52;7.68;;;;;;;21.90;62.11;99572.25;5012470;28;20029;-84
2022/06/27 01:28:48;;;;;;;10.10;7.57;;;;;;;22.25;61.97;99620.25;5013791;28;20037;-84
2022/06/27 01:31:15;;;;;;;10.52;7.57;;;;;;;21.87;62.18;99567.38;5013708;28;20022;-84
2022/06/27 01:33:40;;;;;;;12.43;7.32;;;;;;;21.70;62.26;99539.75;5013562;28;20104;-84
2022/06/27 01:38:52;;;;;;;13.68;8.02;;;;;;;22.29;62.26;99650.16;5015134;28;20168;-84
2022/06/27 01:41:17;;;;;;;10.23;6.85;;;;;;;21.88;62.24;99588.63;5014678;28;20026;-84
2022/06/27 01:43:44;;;;;;;12.95;8.43;;;;;;;22.24;62.44;99636.66;5014958;28;20040;-84
2022/06/27 01:46:10;;;;;;;11.48;8.82;;;;;;;21.91;62.31;99586.50;5015188;28;20491;-84
2022/06/27 01:48:37;;;;;;;11.38;7.97;;;;;;;21.33;62.58;99536.84;5017055;28;20030;-84
2022/06/27 01:51:02;;;;;;;11.57;8.07;;;;;;;21.31;62.58;99528.22;5015815;28;20602;-83
2022/06/27 01:53:28;;;;;;;13.82;7.22;;;;;;;21.81;62.53;99609.50;5018057;28;20046;-84
2022/06/27 01:55:54;;;;;;;11.02;7.43;;;;;;;21.77;62.43;99611.06;5017438;28;20028;-84
2022/06/27 01:58:20;;;;;;;9.63;6.70;;;;;;;21.30;62.75;99542.69;5015900;28;20085;-85
2022/06/27 02:00:46;;;;;;;7.85;6.78;;;;;;;20.90;62.44;99457.81;5015131;28;20026;-84
2022/06/27 02:03:12;;;;;;;11.07;7.53;;;;;;;21.89;62.60;99629.75;5014285;28;20053;-85
2022/06/27 02:05:38;;;;;;;10.27;6.25;;;;;;;21.69;62.69;99611.50;5012849;28;20069;-85
2022/06/27 02:08:04;;;;;;;10.02;7.22;;;;;;;21.09;62.86;99520.09;5014166;28;20079;-84
2022/06/27 02:10:30;;;;;;;10.88;7.22;;;;;;;21.58;63.08;99592.81;5014086;28;20076;-85
2022/06/27 02:12:55;;;;;;;15.23;7.00;;;;;;;21.60;62.84;99588.00;5012659;28;20025;-84
2022/06/27 02:15:22;;;;;;;11.23;6.60;;;;;;;21.60;62.96;99614.84;5012551;28;20021;-85
2022/06/27 02:17:48;;;;;;;10.05;6.50;;;;;;;21.94;63.23;99655.88;5013914;28;20050;-84
2022/06/27 02:20:14;;;;;;;10.57;6.55;;;;;;;21.92;63.03;99656.13;5012451;28;20447;-85
2022/06/27 02:22:40;;;;;;;12.70;7.03;;;;;;;21.22;63.14;99549.28;5014201;28;20113;-84
2022/06/27 02:25:06;;;;;;;12.35;7.20;;;;;;;21.90;63.15;99663.63;5013052;28;20053;-85
2022/06/27 02:27:34;;;;;;;10.98;6.82;;;;;;;20.83;63.12;99484.03;5012859;28;20057;-85
2022/06/27 02:30:00;;;;;;;10.68;7.18;;;;;;;21.63;63.15;99622.44;5012755;28;20025;-84
2022/06/27 02:32:28;;;;;;;11.25;7.38;;;;;;;21.77;63.44;99656.75;5014051;28;20025;-84
2022/06/27 02:34:56;;;;;;;11.98;7.28;;;;;;;20.73;63.24;99511.50;5013660;28;20121;-85
2022/06/27 02:37:22;;;;;;;9.13;6.72;;;;;;;21.69;63.30;99661.75;5012228;28;20030;-84
2022/06/27 02:39:49;;;;;;;13.00;6.40;;;;;;;21.91;63.40;99673.34;5013332;28;20414;-84
2022/06/27 02:42:17;;;;;;;8.02;6.10;;;;;;;21.51;63.29;99606.38;5013469;28;20526;-84
2022/06/27 02:44:45;;;;;;;13.50;6.35;;;;;;;21.59;63.03;99611.34;5013286;28;20096;-84
2022/06/27 02:47:13;;;;;;;15.32;5.93;;;;;;;21.89;62.91;99649.38;5013426;28;20026;-84
2022/06/27 02:49:39;;;;;;;12.18;5.68;;;;;;;21.64;62.94;99611.44;5013625;28;20032;-84
2022/06/27 02:52:16;;;;;;;8.00;5.85;;;;;;;22.08;63.03;99668.75;5014112;28;20022;-85
2022/06/27 02:54:54;;;;;;;9.32;5.32;;;;;;;22.08;63.01;99670.63;5012070;28;20029;-85
2022/06/27 02:57:45;;;;;;;7.80;5.57;;;;;;;22.02;63.44;99674.28;5013194;28;20032;-85
2022/06/27 03:00:12;;;;;;;8.98;5.43;;;;;;;22.00;63.45;99668.34;5011687;28;20022;-85
2022/06/27 03:02:38;;;;;;;11.40;6.53;;;;;;;21.71;63.50;99628.19;5011822;28;20111;-85
2022/06/27 03:05:04;;;;;;;8.60;5.30;;;;;;;21.91;63.78;99664.44;5012014;28;20042;-84
2022/06/27 03:07:30;;;;;;;11.57;5.45;;;;;;;21.93;63.83;99670.38;5011719;28;20022;-84
2022/06/27 03:10:02;;;;;;;11.43;5.72;;;;;;;21.58;63.90;99611.59;5013082;28;20085;-84
2022/06/27 03:12:27;;;;;;;11.13;6.20;;;;;;;21.36;63.82;99577.44;5012941;28;20033;-84
2022/06/27 03:14:53;;;;;;;13.23;6.18;;;;;;;21.30;63.88;99562.31;5013331;28;20026;-84
2022/06/27 03:17:18;;;;;;;8.50;5.57;;;;;;;21.32;63.79;99562.06;5013002;28;20028;-84
2022/06/27 03:19:44;;;;;;;10.07;6.40;;;;;;;21.41;63.60;99590.94;5012813;28;20053;-84
2022/06/27 03:22:10;;;;;;;9.40;6.30;;;;;;;21.90;63.43;99663.63;5014312;28;20140;-85
2022/06/27 03:24:36;;;;;;;10.00;6.07;;;;;;;21.29;63.70;99574.13;5015359;28;20065;-84
2022/06/27 03:27:02;;;;;;;11.18;6.38;;;;;;;21.61;63.62;99646.03;5011563;28;20445;-85
2022/06/27 03:29:27;;;;;;;9.50;6.28;;;;;;;21.12;63.74;99571.44;5011430;28;20021;-84
2022/06/27 03:31:53;;;;;;;11.27;6.93;;;;;;;21.78;63.90;99676.38;5011406;28;20116;-84
2022/06/27 03:34:18;;;;;;;10.63;6.30;;;;;;;21.38;63.52;99607.53;5011155;28;20030;-84
2022/06/27 03:36:44;;;;;;;9.40;6.57;;;;;;;21.34;63.40;99597.53;5012442;28;20101;-84
2022/06/27 03:39:11;;;;;;;9.75;6.82;;;;;;;21.27;62.92;99600.41;5011291;28;20502;-85
2022/06/27 03:41:37;;;;;;;8.45;6.88;;;;;;;21.29;63.09;99611.72;5012682;28;20029;-84
2022/06/27 03:44:04;;;;;;;10.85;7.32;;;;;;;21.11;63.16;99591.28;5012510;28;20034;-84
2022/06/27 03:46:29;;;;;;;13.15;7.55;;;;;;;21.28;63.45;99628.88;5012469;28;20613;-84
2022/06/27 03:51:39;;;;;;;12.10;7.93;;;;;;;21.68;63.14;99695.03;5012519;28;20024;-85
2022/06/27 03:54:04;;;;;;;10.73;7.45;;;;;;;21.58;63.09;99668.84;5012568;28;20104;-85
2022/06/27 03:56:30;;;;;;;17.95;7.80;;;;;;;21.33;63.05;99639.69;5011058;28;20029;-85
2022/06/27 03:58:55;;;;;;;11.93;7.78;;;;;;;21.01;63.22;99579.56;5012098;28;20053;-85
2022/06/27 04:01:20;;;;;;;13.88;7.68;;;;;;;21.06;62.91;99572.41;5011915;28;20550;-84
2022/06/27 04:03:46;;;;;;;12.80;8.15;;;;;;;21.61;63.17;99681.78;5012147;28;20499;-84
2022/06/27 04:06:11;;;;;;;15.52;8.10;;;;;;;20.43;63.72;99519.88;5011950;28;20052;-84
2022/06/27 04:08:37;;;;;;;11.02;8.32;;;;;;;21.49;63.58;99667.59;5010652;28;20026;-84
2022/06/27 04:11:02;;;;;;;14.50;8.57;;;;;;;21.06;63.56;99593.06;5010575;28;20454;-84
2022/06/27 04:13:28;;;;;;;14.80;9.50;;;;;;;21.42;63.41;99654.34;5010703;28;20470;-84
2022/06/27 04:15:53;;;;;;;15.07;8.57;;;;;;;21.57;63.82;99672.59;5011853;28;20032;-84
2022/06/27 04:18:19;;;;;;;10.70;8.27;;;;;;;20.56;63.57;99497.28;5010499;28;20021;-84
2022/06/27 04:20:44;;;;;;;10.48;8.07;;;;;;;21.62;63.61;99644.97;5011875;28;20087;-84
2022/06/27 04:23:10;;;;;;;15.55;8.57;;;;;;;21.39;63.18;99614.53;5011943;28;20022;-84
2022/06/27 04:25:35;;;;;;;14.95;9.13;;;;;;;21.23;63.29;99564.34;5011869;28;20028;-84
2022/06/27 04:28:00;;;;;;;13.25;8.07;;;;;;;21.76;63.01;99638.19;5010510;28;20061;-84
2022/06/27 04:30:27;;;;;;;11.77;8.63;;;;;;;21.92;63.28;99660.69;5010287;28;20068;-84
2022/06/27 04:32:53;;;;;;;15.55;8.38;;;;;;;21.65;63.02;99594.25;5010366;28;20026;-84
2022/06/27 04:35:18;;;;;;;10.40;7.72;;;;;;;21.97;63.02;99650.00;5011871;28;20032;-84
2022/06/27 04:37:44;;;;;;;11.10;7.53;;;;;;;21.79;63.54;99608.13;5011692;28;20034;-84
2022/06/27 04:40:12;;;;;;;9.82;7.90;;;;;;;21.90;63.50;99612.56;5011465;28;20021;-84
2022/06/27 04:42:37;;;;;;;11.98;8.05;;;;;;;21.68;63.95;99566.06;5010438;28;20029;-84
2022/06/27 04:45:06;;;;;;;10.85;8.27;;;;;;;22.28;64.13;99665.47;5010401;28;20473;-84
2022/06/27 04:47:32;;;;;;;10.93;8.02;;;;;;;21.28;64.08;99507.22;5010255;28;20018;-84
2022/06/27 04:49:58;;;;;;;10.90;8.43;;;;;;;22.05;64.21;99615.47;5010354;28;20388;-84
2022/06/27 04:52:24;;;;;;;9.55;8.65;;;;;;;21.32;64.50;99487.69;5010106;28;20510;-84
2022/06/27 04:54:50;;;;;;;12.07;8.80;;;;;;;22.46;64.53;99656.28;5011365;28;20026;-84
2022/06/27 04:57:15;;;;;;;14.93;8.90;;;;;;;22.32;65.09;99630.84;5010086;28;20026;-84
2022/06/27 04:59:41;;;;;;;13.68;8.40;;;;;;;22.40;64.81;99655.44;5011103;28;20026;-84
2022/06/27 05:02:07;;;;;;;11.18;8.75;;;;;;;22.43;64.91;99636.09;5013642;28;20030;-84
2022/06/27 05:04:32;;;;;;;10.68;9.45;;;;;;;22.58;64.88;99653.44;5015221;28;20025;-83
2022/06/27 05:06:58;;;;;;;11.77;9.35;;;;;;;22.70;64.74;99687.22;5013977;28;20034;-84
2022/06/27 05:09:24;;;;;;;10.55;9.50;;;;;;;21.72;64.66;99502.69;5013932;28;20022;-84
2022/06/27 05:11:52;;;;;;;10.32;8.80;;;;;;;22.79;64.46;99666.03;5015151;28;20075;-84
2022/06/27 05:14:18;;;;;;;9.77;8.77;;;;;;;22.87;64.75;99665.59;5015313;28;20021;-84
2022/06/27 05:16:44;;;;;;;8.60;7.88;;;;;;;22.85;64.73;99678.50;5013716;28;20025;-84
2022/06/27 05:19:10;;;;;;;9.25;8.40;;;;;;;22.00;64.53;99521.28;5015253;28;20057;-84
2022/06/27 05:21:36;;;;;;;9.45;8.55;;;;;;;22.67;64.64;99654.63;5013798;28;20105;-84
2022/06/27 05:24:02;;;;;;;12.57;7.90;;;;;;;22.45;64.66;99601.66;5014832;28;20076;-84
2022/06/27 05:26:28;;;;;;;9.18;8.27;;;;;;;22.36;64.92;99587.06;5013578;28;20110;-84
2022/06/27 05:28:55;;;;;;;9.82;8.13;;;;;;;22.67;64.95;99628.50;5014841;28;20147;-84
2022/06/27 05:31:21;;;;;;;11.00;9.27;;;;;;;22.66;64.69;99623.38;5014906;28;20014;-84
2022/06/27 05:33:46;;;;;;;8.70;7.80;;;;;;;21.73;64.62;99470.19;5014850;28;20037;-84
2022/06/27 05:36:11;;;;;;;10.10;7.80;;;;;;;22.93;64.54;99667.28;5014880;28;20030;-83
2022/06/27 05:38:39;;;;;;;9.25;7.22;;;;;;;22.72;64.56;99607.03;5013692;28;20021;-83
2022/06/27 05:41:05;;;;;;;7.47;6.78;;;;;;;23.38;64.02;99703.78;5014843;28;20025;-86
2022/06/27 05:43:31;;;;;;;10.00;6.93;;;;;;;23.32;63.75;99696.72;5013431;28;20567;-85
2022/06/27 05:45:56;;;;;;;7.50;6.80;;;;;;;22.91;63.70;99647.06;5014696;28;20022;-84
2022/06/27 05:48:22;;;;;;;7.65;6.80;;;;;;;22.89;63.77;99619.59;5014315;28;20030;-84
2022/06/27 05:50:48;;;;;;;14.85;13.45;;;;;;;22.88;63.67;99626.84;5012410;28;20505;-83
2022/06/27 05:53:14;;;;;;;7.10;6.32;;;;;;;23.54;63.52;99723.56;5021951;28;20076;-83
2022/06/27 05:55:40;;;;;;;7.93;6.78;;;;;;;23.45;63.21;99704.38;5034206;28;20104;-84
2022/06/27 05:58:08;;;;;;;9.32;6.90;;;;;;;22.97;63.02;99633.38;5021895;28;20026;-86
2022/06/27 06:00:34;;;;;;;11.32;8.27;;;;;;;22.89;62.85;99600.72;5018731;28;20108;-86
2022/06/27 06:03:00;;;;;;;9.57;7.90;;;;;;;23.46;62.66;99674.47;5034344;28;20028;-85
2022/06/27 06:05:28;;;;;;;12.43;8.63;;;;;;;23.79;62.67;99713.00;5021336;28;20057;-85
2022/06/27 06:07:53;;;;;;;7.53;6.93;;;;;;;23.65;62.13;99680.28;5014232;28;20021;-86
2022/06/27 06:10:20;;;;;;;8.18;7.35;;;;;;;23.35;62.48;99645.00;5029416;28;20025;-84
2022/06/27 06:12:46;;;;;;;8.88;7.88;;;;;;;22.73;62.32;99544.06;5014173;28;20025;-83
2022/06/27 06:15:12;;;;;;;10.38;8.25;;;;;;;23.10;62.41;99605.25;5014316;28;20025;-83
2022/06/27 06:17:37;;;;;;;10.07;8.73;;;;;;;23.57;62.73;99667.28;5013546;28;20037;-83
2022/06/27 06:20:05;;;;;;;10.38;9.43;;;;;;;23.97;62.48;99728.75;5014291;28;20426;-84
2022/06/27 06:22:31;;;;;;;11.20;10.15;;;;;;;23.85;62.72;99689.56;5014658;28;20068;-82
2022/06/27 06:24:57;;;;;;;10.82;9.63;;;;;;;23.74;62.32;99678.72;5012651;28;20028;-84
2022/06/27 06:27:23;;;;;;;11.57;10.48;;;;;;;23.82;61.77;99688.22;5012655;28;20025;-83
2022/06/27 06:29:49;;;;;;;11.68;8.82;;;;;;;24.04;61.98;99723.13;5029058;28;20025;-85
2022/06/27 06:32:14;;;;;;;12.10;11.00;;;;;;;22.67;61.90;99523.56;5012418;28;20018;-86
2022/06/27 06:34:41;;;;;;;13.10;11.90;;;;;;;24.11;62.29;99714.78;5012260;28;20092;-85
2022/06/27 06:37:09;;;;;;;12.98;11.77;;;;;;;24.15;62.27;99727.50;5013639;28;20022;-85
2022/06/27 06:39:34;;;;;;;12.68;11.38;;;;;;;23.91;62.01;99678.56;5014060;28;20403;-85
2022/06/27 06:42:00;;;;;;;15.65;13.55;;;;;;;24.00;61.73;99681.56;5013334;28;20089;-83
2022/06/27 06:44:25;;;;;;;13.80;12.48;;;;;;;23.64;61.38;99651.69;5013729;28;20022;-85
2022/06/27 06:46:52;;;;;;;13.00;10.88;;;;;;;24.25;61.28;99732.13;5030685;28;20064;-85
2022/06/27 06:49:18;;;;;;;12.38;10.25;;;;;;;24.15;60.90;99711.31;5053305;28;20036;-86
2022/06/27 06:51:44;;;;;;;9.95;8.93;;;;;;;23.85;60.92;99652.63;5053389;28;20017;-85
2022/06/27 06:54:15;;;;;;;10.50;9.45;;;;;;;23.17;60.50;99525.00;5052116;28;20440;-83
2022/06/27 06:56:41;;;;;;;11.05;8.98;;;;;;;24.55;59.83;99726.91;5023619;28;20029;-85
2022/06/27 06:59:07;;;;;;;11.35;8.48;;;;;;;24.12;59.63;99671.38;5012141;28;20041;-83
2022/06/27 07:01:33;;;;;;;9.55;8.50;;;;;;;24.58;59.44;99729.06;5013280;28;20018;-85
2022/06/27 07:03:59;;;;;;;10.85;9.60;;;;;;;24.22;59.40;99657.09;5012552;28;20029;-85
2022/06/27 07:06:26;;;;;;;13.20;9.77;;;;;;;24.40;59.22;99697.94;5018644;28;20041;-86
2022/06/27 07:08:53;;;;;;;12.85;10.93;;;;;;;24.54;59.18;99701.00;5018241;28;20018;-85
2022/06/27 07:11:23;;;;;;;12.23;10.27;;;;;;;24.23;58.95;99635.25;5019792;28;20461;-85
2022/06/27 07:13:52;;;;;;;11.77;9.88;;;;;;;24.70;58.85;99712.63;5020206;28;20021;-85
2022/06/27 07:16:19;;;;;;;10.30;9.30;;;;;;;24.51;58.73;99658.28;5026248;28;20510;-84
2022/06/27 07:18:48;;;;;;;8.80;7.95;;;;;;;25.02;58.36;99732.16;5043328;28;20028;-85
2022/06/27 07:21:16;;;;;;;9.82;8.82;;;;;;;25.08;57.58;99732.19;5036799;28;20410;-84
2022/06/27 07:23:43;;;;;;;9.60;8.60;;;;;;;25.12;57.10;99744.06;5048050;28;20021;-84
2022/06/27 07:26:09;;;;;;;10.30;8.07;;;;;;;24.74;56.71;99659.72;5032639;28;20021;-85
2022/06/27 07:28:35;;;;;;;9.02;8.02;;;;;;;25.19;56.31;99740.03;5032191;28;20422;-85
2022/06/27 07:31:01;;;;;;;11.23;9.95;;;;;;;24.68;56.89;99642.69;5040646;28;20031;-86
2022/06/27 07:33:27;;;;;;;12.50;10.88;;;;;;;24.87;56.82;99661.91;5034538;28;20021;-85
2022/06/27 07:35:53;;;;;;;12.13;10.50;;;;;;;25.00;56.86;99680.31;5036497;28;20048;-85
2022/06/27 07:38:18;;;;;;;15.80;13.98;;;;;;;25.19;56.71;99723.81;5051999;28;20485;-85
2022/06/27 07:40:44;;;;;;;10.57;9.63;;;;;;;25.46;56.15;99720.06;5050735;28;20089;-85
2022/06/27 07:43:13;;;;;;;11.73;10.63;;;;;;;24.96;55.37;99629.75;5050723;28;20032;-85
2022/06/27 07:45:40;;;;;;;9.38;7.63;;;;;;;25.38;54.68;99698.97;5047569;28;20171;-85
2022/06/27 07:48:06;;;;;;;7.35;6.68;;;;;;;25.68;54.24;99725.19;5034384;28;20075;-84
2022/06/27 07:50:40;;;;;;;9.02;7.60;;;;;;;25.51;54.10;99684.91;5051870;28;20112;-84
2022/06/27 07:53:15;;;;;;;7.50;6.65;;;;;;;25.25;53.59;99620.03;5015019;28;20029;-84
2022/06/27 07:55:49;;;;;;;9.10;7.20;;;;;;;26.00;53.47;99722.16;5036506;28;20444;-84
2022/06/27 07:58:16;;;;;;;7.82;7.03;;;;;;;25.86;53.24;99689.44;5059942;28;20021;-84
2022/06/27 08:00:47;;;;;;;6.05;4.82;;;;;;;26.01;51.67;99705.66;5042915;28;20022;-84
2022/06/27 08:05:59;;;;;;;6.18;5.10;;;;;;;26.05;50.48;99700.53;5042838;28;20461;-84
2022/06/27 08:08:26;;;;;;;7.72;5.93;;;;;;;26.27;50.08;99725.34;5029936;28;20099;-84
2022/06/27 08:10:52;;;;;;;5.65;5.07;;;;;;;26.31;49.82;99739.94;5017902;28;20076;-85
2022/06/27 08:13:18;;;;;;;5.75;5.20;;;;;;;26.43;49.61;99728.81;5010160;28;20184;-84
2022/06/27 08:15:47;;;;;;;5.82;5.15;;;;;;;26.50;49.31;99730.13;5010181;28;20411;-85
2022/06/27 08:18:15;;;;;;;8.80;7.93;;;;;;;26.34;48.76;99690.69;5028225;28;20116;-85
2022/06/27 08:20:42;;;;;;;5.97;5.32;;;;;;;26.26;48.38;99675.78;5029609;28;20478;-85
2022/06/27 08:23:08;;;;;;;7.32;6.63;;;;;;;26.60;48.37;99719.25;5031334;28;20485;-85
2022/06/27 08:25:34;;;;;;;9.75;6.18;;;;;;;26.05;47.74;99638.28;5022834;28;20027;-84
2022/06/27 08:28:00;;;;;;;9.75;6.38;;;;;;;26.12;47.77;99622.56;5026369;28;20025;-85
2022/06/27 08:30:27;;;;;;;6.43;5.80;;;;;;;26.53;47.53;99680.84;5028602;28;20150;-85
2022/06/27 08:32:58;;;;;;;7.38;6.68;;;;;;;26.81;47.03;99735.41;5011608;28;20026;-84
2022/06/27 08:35:24;;;;;;;5.85;5.22;;;;;;;26.68;46.83;99698.88;5011372;28;20022;-85
2022/06/27 08:37:54;;;;;;;7.57;5.65;;;;;;;26.79;46.57;99694.25;5020475;28;20117;-84
2022/06/27 08:40:21;;;;;;;5.38;4.88;;;;;;;27.07;46.84;99712.50;5024378;28;20112;-85
2022/06/27 08:42:47;;;;;;;8.07;5.10;;;;;;;27.18;46.73;99705.91;5023395;28;20120;-83
2022/06/27 08:45:17;;;;;;;5.88;4.63;;;;;;;25.83;46.43;99479.03;5026045;28;20026;-84
2022/06/27 08:47:43;;;;;;;6.10;4.43;;;;;;;27.26;46.00;99684.72;5021688;28;20045;-83
2022/06/27 08:50:11;;;;;;;7.95;5.03;;;;;;;27.30;45.46;99678.44;5010908;28;20026;-83
2022/06/27 08:52:39;;;;;;;5.40;4.68;;;;;;;27.61;45.00;99694.47;5015536;28;20049;-82
2022/06/27 08:55:09;;;;;;;5.90;5.28;;;;;;;27.46;44.66;99668.25;5024811;28;20116;-83
2022/06/27 08:57:39;;;;;;;5.43;4.80;;;;;;;26.69;44.67;99567.78;5031080;28;20014;-83
2022/06/27 09:00:09;;;;;;;5.15;4.28;;;;;;;26.87;44.25;99534.59;5011967;28;20069;-83
2022/06/27 09:02:42;;;;;;;8.77;5.40;;;;;;;27.56;43.95;99632.09;5024479;28;20033;-83
2022/06/27 09:05:29;;;;;;;5.68;4.22;;;;;;;27.90;42.66;99681.69;5020983;28;20059;-83
2022/06/27 09:07:57;;;;;;;4.53;4.13;;;;;;;28.10;43.28;99708.56;5025924;28;20026;-83
2022/06/27 09:10:41;;;;;;;4.10;3.70;;;;;;;27.82;41.96;99634.28;5031568;28;20026;-83
2022/06/27 09:13:17;;;;;;;5.22;4.22;;;;;;;28.43;41.10;99706.06;5041050;28;20057;-84
2022/06/27 09:16:01;;;;;;;7.82;5.97;;;;;;;28.40;41.43;99664.00;5030700;28;20521;-83
2022/06/27 09:18:33;;;;;;;3.90;3.50;;;;;;;28.83;40.68;99701.16;5035828;28;20088;-83
2022/06/27 09:21:09;;;;;;;5.35;3.50;;;;;;;28.59;39.05;99634.13;5030860;28;20029;-83
2022/06/27 09:23:59;;;;;;;4.28;3.40;;;;;;;28.79;39.01;99660.16;5031069;28;20029;-84
2022/06/27 09:26:30;;;;;;;5.03;3.33;;;;;;;28.41;39.09;99567.84;5029755;28;20521;-84
2022/06/27 09:28:56;;;;;;;6.40;4.07;;;;;;;29.33;39.11;99686.00;5030065;28;20025;-84
2022/06/27 09:31:28;;;;;;;6.18;4.78;;;;;;;29.22;38.35;99695.44;5009797;28;20052;-84
2022/06/27 09:34:18;;;;;;;4.30;3.97;;;;;;;29.44;38.62;99692.09;5021825;28;20021;-84
2022/06/27 09:36:52;;;;;;;4.07;3.75;;;;;;;29.73;36.50;99687.22;5019053;28;20419;-84
2022/06/27 09:39:32;;;;;;;4.90;3.40;;;;;;;29.42;36.00;99591.72;5022727;28;20022;-84
2022/06/27 09:41:58;;;;;;;3.35;3.05;;;;;;;29.64;36.28;99665.31;5033632;28;20033;-82
2022/06/27 09:44:35;;;;;;;4.90;4.40;;;;;;;29.82;36.83;99638.34;5016319;28;20150;-84
2022/06/27 09:47:16;;;;;;;3.92;3.47;;;;;;;30.33;35.97;99681.69;5014245;28;20029;-83
2022/06/27 09:49:44;;;;;;;4.90;3.05;;;;;;;28.92;35.63;99436.56;5017266;28;20037;-83
2022/06/27 09:52:12;;;;;;;5.35;2.90;;;;;;;30.39;34.81;99653.22;5031416;28;20465;-83
2022/06/27 09:54:40;;;;;;;5.93;3.90;;;;;;;30.70;34.88;99680.66;5044021;28;20041;-83
2022/06/27 09:57:07;;;;;;;6.10;5.22;;;;;;;30.68;35.15;99658.34;5033662;28;20029;-84
2022/06/27 09:59:33;;;;;;;5.88;4.95;;;;;;;30.99;35.75;99672.84;5043300;28;20056;-84
2022/06/27 10:02:00;;;;;;;5.78;5.05;;;;;;;30.75;35.81;99663.38;5070465;28;20062;-84
2022/06/27 10:04:26;;;;;;;4.47;4.10;;;;;;;30.47;35.59;99583.56;5033808;28;20022;-84
2022/06/27 10:06:54;;;;;;;4.28;3.55;;;;;;;30.84;35.12;99680.59;5053941;28;20024;-84
2022/06/27 10:09:21;;;;;;;7.45;5.03;;;;;;;30.31;35.85;99604.91;5053467;28;20032;-85
2022/06/27 10:11:48;;;;;;;7.57;4.25;;;;;;;30.57;35.87;99667.84;5051270;28;20017;-84
2022/06/27 10:14:23;;;;;;;6.00;5.10;;;;;;;30.32;36.42;99669.97;5052113;28;20033;-84
2022/06/27 10:16:57;;;;;;;6.75;3.90;;;;;;;29.50;37.34;99609.28;5041307;28;20040;-84
2022/06/27 10:19:25;;;;;;;5.68;5.18;;;;;;;29.63;38.01;99679.22;5044537;28;20459;-84
2022/06/27 10:21:51;;;;;;;4.00;3.70;;;;;;;28.73;38.82;99575.19;5036275;28;20022;-84
2022/06/27 10:24:26;;;;;;;8.02;4.82;;;;;;;29.13;39.32;99670.81;5047961;28;20520;-83
2022/06/27 10:27:02;;;;;;;6.82;4.30;;;;;;;28.47;39.59;99601.16;5049927;28;20028;-84
2022/06/27 10:29:30;;;;;;;4.60;3.63;;;;;;;29.41;39.42;99661.63;5031746;28;20083;-82
2022/06/27 10:32:04;;;;;;;8.52;4.00;;;;;;;29.24;37.90;99552.63;5031643;28;20021;-83
2022/06/27 10:34:38;;;;;;;4.53;4.13;;;;;;;30.49;37.75;99658.47;5035977;28;20029;-84
2022/06/27 10:37:24;;;;;;;4.82;4.07;;;;;;;30.99;36.53;99656.50;5034514;28;20025;-84
2022/06/27 10:40:19;;;;;;;4.43;3.88;;;;;;;31.41;35.84;99651.66;5041646;28;20036;-84
2022/06/27 10:42:55;;;;;;;4.72;3.67;;;;;;;31.65;35.29;99618.53;5045804;28;20036;-83
2022/06/27 10:45:20;;;;;;;4.50;3.40;;;;;;;32.16;34.90;99652.63;5048863;28;20385;-84
2022/06/27 10:47:54;;;;;;;5.00;4.53;;;;;;;32.32;34.27;99626.47;5039120;28;20044;-84
2022/06/27 10:50:26;;;;;;;4.35;3.50;;;;;;;32.09;33.68;99568.41;5043831;28;20097;-83
2022/06/27 10:53:19;;;;;;;3.90;3.42;;;;;;;32.83;33.39;99644.88;5033291;28;20108;-83
2022/06/27 10:55:45;;;;;;;3.92;3.60;;;;;;;33.03;32.90;99635.19;5048764;28;20107;-83
2022/06/27 10:58:40;;;;;;;4.65;3.58;;;;;;;33.33;32.76;99636.09;5050089;28;20079;-83
2022/06/27 11:01:12;;;;;;;3.78;3.35;;;;;;;33.61;31.52;99633.75;5028808;28;20081;-83
2022/06/27 11:03:39;;;;;;;4.07;3.67;;;;;;;32.95;32.05;99499.22;5032135;28;20498;-83
2022/06/27 11:06:06;;;;;;;5.45;4.30;;;;;;;33.51;31.88;99627.84;5032883;28;20045;-83
2022/06/27 11:08:44;;;;;;;4.30;3.40;;;;;;;32.95;31.30;99514.84;5041817;28;20021;-84
2022/06/27 11:11:22;;;;;;;3.40;3.10;;;;;;;33.65;31.18;99590.09;5033496;28;20109;-84
2022/06/27 11:13:54;;;;;;;3.83;3.35;;;;;;;33.97;30.77;99607.81;5033195;28;20029;-83
2022/06/27 11:16:30;;;;;;;3.45;3.15;;;;;;;34.05;30.63;99609.72;5031781;28;20152;-85
2022/06/27 11:18:59;;;;;;;4.90;4.50;;;;;;;33.84;31.12;99619.81;5034773;28;20096;-83
2022/06/27 11:21:28;;;;;;;6.00;4.28;;;;;;;33.44;31.94;99620.13;5031444;28;20022;-83
2022/06/27 11:24:04;;;;;;;4.60;3.72;;;;;;;32.50;32.08;99572.63;5037759;28;20031;-84
2022/06/27 11:26:32;;;;;;;5.80;3.90;;;;;;;32.37;32.65;99611.84;5052753;28;20021;-85
2022/06/27 11:32:05;;;;;;;5.63;4.00;;;;;;;31.54;34.02;99620.75;5053156;28;20460;-83
2022/06/27 11:34:36;;;;;;;4.72;4.32;;;;;;;30.88;34.03;99546.06;5050279;28;20032;-83
2022/06/27 11:37:11;;;;;;;3.67;3.38;;;;;;;30.79;34.60;99523.41;5031634;28;20025;-84
2022/06/27 11:39:36;;;;;;;7.10;5.00;;;;;;;31.05;34.58;99550.81;5047282;28;20083;-83
2022/06/27 11:42:10;;;;;;;5.10;3.60;;;;;;;31.80;33.35;99592.75;5061454;28;20517;-84
2022/06/27 11:45:02;;;;;;;6.10;4.32;;;;;;;32.55;33.29;99616.19;5056857;28;20111;-84